createdAt,value
2022-12-18T00:01:27.677Z,21.93
2022-12-18T00:03:56.213Z,21.07
2022-12-18T00:06:24.339Z,19.37
2022-12-18T00:08:52.121Z,19.87
2022-12-18T00:11:21.600Z,23.27
2022-12-18T00:13:49.347Z,26.73
2022-12-18T00:16:21.954Z,25.20
2022-12-18T00:18:50.650Z,22.33
2022-12-18T00:21:17.772Z,22.20
2022-12-18T00:23:46.110Z,19.07
2022-12-18T00:26:20.705Z,23.63
2022-12-18T00:28:47.925Z,19.27
2022-12-18T00:31:21.104Z,20.33
2022-12-18T00:33:49.080Z,18.37
2022-12-18T00:36:23.248Z,24.30
2022-12-18T00:38:50.899Z,20.00
2022-12-18T00:41:38.975Z,26.20
2022-12-18T00:44:08.172Z,23.23
2022-12-18T00:46:34.955Z,19.33
2022-12-18T00:49:01.917Z,23.77
2022-12-18T00:51:28.759Z,22.50
2022-12-18T00:53:55.678Z,23.67
2022-12-18T00:56:22.705Z,25.00
2022-12-18T00:58:49.784Z,30.50
2022-12-18T01:01:17.673Z,36.10
2022-12-18T01:03:46.260Z,35.47
2022-12-18T01:06:15.313Z,40.23
2022-12-18T01:08:42.328Z,40.57
2022-12-18T01:11:14.812Z,40.33
2022-12-18T01:13:42.103Z,52.97
2022-12-18T01:16:10.032Z,78.30
2022-12-18T01:18:37.026Z,226.47
2022-12-18T01:21:08.758Z,421.33
2022-12-18T01:23:35.847Z,529.53
2022-12-18T01:26:07.944Z,716.20
2022-12-18T01:28:34.703Z,562.17
2022-12-18T01:31:24.032Z,576.13
2022-12-18T01:33:52.137Z,678.83
2022-12-18T01:36:20.436Z,591.67
2022-12-18T01:38:48.178Z,729.03
2022-12-18T01:41:19.223Z,1209.43
2022-12-18T01:43:53.362Z,997.77
2022-12-18T01:46:22.084Z,700.77
2022-12-18T01:48:51.776Z,676.13
2022-12-18T01:51:18.766Z,866.27
2022-12-18T01:53:47.758Z,573.67
2022-12-18T01:56:19.752Z,186.93
2022-12-18T01:58:58.529Z,481.40
2022-12-18T02:01:26.257Z,152.63
2022-12-18T02:03:53.681Z,451.67
2022-12-18T02:06:42.278Z,414.43
2022-12-18T02:09:29.467Z,190.90
2022-12-18T02:12:11.912Z,619.97
2022-12-18T02:15:07.954Z,528.77
2022-12-18T02:17:40.650Z,365.73
2022-12-18T02:20:39.649Z,800.63
2022-12-18T02:23:19.610Z,462.27
2022-12-18T02:26:14.403Z,326.33
2022-12-18T02:28:50.139Z,266.70
2022-12-18T02:31:22.610Z,396.73
2022-12-18T02:33:51.719Z,381.97
2022-12-18T02:36:21.005Z,353.23
2022-12-18T02:38:48.654Z,497.60
2022-12-18T02:41:17.623Z,547.57
2022-12-18T02:43:55.970Z,640.73
2022-12-18T02:46:31.483Z,525.10
2022-12-18T02:49:14.727Z,512.20
2022-12-18T02:51:53.671Z,396.10
2022-12-18T02:54:47.566Z,564.67
2022-12-18T02:57:30.661Z,691.47
2022-12-18T03:00:06.962Z,619.20
2022-12-18T03:02:41.404Z,610.23
2022-12-18T03:05:17.026Z,546.43
2022-12-18T03:07:52.388Z,333.17
2022-12-18T03:10:27.293Z,276.67
2022-12-18T03:13:01.505Z,193.77
2022-12-18T03:15:35.987Z,201.20
2022-12-18T03:18:09.927Z,107.47
2022-12-18T03:20:39.990Z,85.57
2022-12-18T03:23:18.722Z,83.90
2022-12-18T03:25:47.383Z,146.83
2022-12-18T03:28:22.637Z,132.67
2022-12-18T03:30:55.797Z,96.57
2022-12-18T03:33:32.289Z,89.13
2022-12-18T03:35:59.180Z,85.43
2022-12-18T03:38:26.037Z,96.60
2022-12-18T03:41:11.407Z,90.47
2022-12-18T03:43:57.474Z,109.90
2022-12-18T03:46:51.130Z,108.93
2022-12-18T03:49:43.892Z,114.57
2022-12-18T03:52:16.575Z,85.83
2022-12-18T03:54:45.509Z,107.73
2022-12-18T03:57:20.507Z,112.17
2022-12-18T03:59:50.309Z,123.50
2022-12-18T04:02:18.967Z,130.87
2022-12-18T04:04:47.767Z,108.27
2022-12-18T04:07:15.406Z,107.93
2022-12-18T04:09:44.329Z,83.70
2022-12-18T04:12:11.149Z,94.00
2022-12-18T04:14:37.955Z,75.47
2022-12-18T04:17:04.813Z,77.80
2022-12-18T04:19:31.708Z,67.83
2022-12-18T04:21:58.482Z,76.03
2022-12-18T04:24:25.432Z,70.03
2022-12-18T04:26:52.249Z,73.07
2022-12-18T04:29:19.033Z,69.77
2022-12-18T04:31:45.741Z,66.77
2022-12-18T04:34:12.522Z,61.90
2022-12-18T04:36:39.353Z,64.83
2022-12-18T04:39:06.050Z,64.03
2022-12-18T04:41:32.786Z,63.97
2022-12-18T04:43:59.591Z,59.83
2022-12-18T04:46:26.433Z,62.17
2022-12-18T04:48:53.380Z,63.27
2022-12-18T04:51:26.119Z,57.63
2022-12-18T04:53:54.665Z,55.57
2022-12-18T04:56:21.701Z,68.87
2022-12-18T04:58:48.890Z,64.50
2022-12-18T05:01:17.749Z,57.83
2022-12-18T05:03:45.470Z,64.40
2022-12-18T05:06:12.499Z,58.40
2022-12-18T05:08:39.422Z,60.17
2022-12-18T05:11:16.962Z,65.17
2022-12-18T05:13:45.449Z,62.33
2022-12-18T05:16:12.538Z,60.73
2022-12-18T05:18:39.842Z,51.07
2022-12-18T05:21:07.067Z,64.13
2022-12-18T05:23:37.958Z,58.07
2022-12-18T05:26:06.963Z,60.63
2022-12-18T05:28:36.078Z,58.83
2022-12-18T05:31:04.681Z,61.83
2022-12-18T05:33:34.014Z,55.17
2022-12-18T05:36:03.002Z,57.60
2022-12-18T05:38:31.194Z,54.63
2022-12-18T05:40:58.605Z,55.60
2022-12-18T05:43:26.567Z,55.73
2022-12-18T05:45:54.894Z,54.33
2022-12-18T05:48:22.328Z,56.53
2022-12-18T05:50:50.684Z,49.93
2022-12-18T05:53:21.625Z,55.90
2022-12-18T05:55:48.671Z,52.13
2022-12-18T05:58:15.700Z,53.93
2022-12-18T06:00:45.656Z,48.57
2022-12-18T06:03:13.452Z,57.20
2022-12-18T06:05:45.414Z,52.07
2022-12-18T06:08:13.655Z,47.97
2022-12-18T06:10:40.850Z,47.43
2022-12-18T06:13:08.122Z,53.17
2022-12-18T06:15:38.297Z,45.43
2022-12-18T06:18:05.516Z,49.30
2022-12-18T06:20:33.893Z,38.63
2022-12-18T06:23:01.226Z,47.87
2022-12-18T06:25:28.055Z,52.40
2022-12-18T06:27:54.926Z,47.20
2022-12-18T06:30:21.951Z,45.03
2022-12-18T06:32:56.350Z,44.27
2022-12-18T06:35:24.132Z,37.07
2022-12-18T06:37:50.896Z,45.13
2022-12-18T06:40:18.019Z,42.80
2022-12-18T06:42:44.795Z,45.23
2022-12-18T06:45:12.417Z,44.30
2022-12-18T06:47:39.254Z,48.23
2022-12-18T06:50:06.658Z,40.33
2022-12-18T06:52:34.529Z,40.80
2022-12-18T06:55:01.327Z,41.57
2022-12-18T06:57:28.098Z,42.33
2022-12-18T06:59:54.781Z,47.63
2022-12-18T07:02:21.669Z,42.97
2022-12-18T07:04:48.455Z,48.00
2022-12-18T07:07:15.199Z,42.80
2022-12-18T07:09:41.943Z,43.13
2022-12-18T07:12:09.037Z,44.27
2022-12-18T07:14:35.752Z,40.73
2022-12-18T07:17:02.666Z,41.80
2022-12-18T07:19:30.670Z,41.53
2022-12-18T07:21:58.004Z,44.10
2022-12-18T07:24:24.751Z,44.77
2022-12-18T07:26:51.489Z,42.67
2022-12-18T07:29:18.229Z,49.10
2022-12-18T07:31:45.303Z,46.50
2022-12-18T07:34:16.189Z,41.77
2022-12-18T07:36:43.283Z,48.73
2022-12-18T07:39:12.187Z,49.67
2022-12-18T07:41:42.481Z,45.67
2022-12-18T07:44:13.926Z,43.70
2022-12-18T07:46:40.720Z,53.10
2022-12-18T07:49:07.730Z,54.50
2022-12-18T07:51:34.484Z,49.93
2022-12-18T07:54:01.189Z,49.17
2022-12-18T07:56:29.478Z,52.43
2022-12-18T07:58:58.185Z,56.83
2022-12-18T08:01:25.224Z,54.37
2022-12-18T08:03:52.663Z,57.37
2022-12-18T08:06:22.748Z,56.03
2022-12-18T08:08:53.431Z,52.70
2022-12-18T08:11:20.377Z,55.37
2022-12-18T08:13:48.265Z,55.53
2022-12-18T08:16:15.884Z,52.83
2022-12-18T08:18:42.651Z,55.87
2022-12-18T08:21:11.491Z,51.60
2022-12-18T08:23:42.641Z,50.67
2022-12-18T08:26:11.975Z,48.87
2022-12-18T08:28:39.210Z,47.87
2022-12-18T08:31:06.773Z,41.97
2022-12-18T08:33:34.233Z,42.80
2022-12-18T08:36:02.383Z,48.47
2022-12-18T08:38:29.283Z,44.30
2022-12-18T08:41:08.036Z,47.10
2022-12-18T08:43:53.579Z,48.40
2022-12-18T08:46:21.991Z,44.63
2022-12-18T08:48:51.111Z,48.17
2022-12-18T08:51:18.308Z,39.80
2022-12-18T08:53:45.666Z,38.10
2022-12-18T08:56:13.955Z,38.30
2022-12-18T08:58:42.012Z,35.73
2022-12-18T09:01:11.466Z,40.23
2022-12-18T09:03:38.797Z,42.43
2022-12-18T09:06:06.509Z,40.50
2022-12-18T09:08:37.546Z,37.53
2022-12-18T09:11:04.683Z,36.43
2022-12-18T09:13:31.495Z,43.40
2022-12-18T09:15:58.299Z,32.67
2022-12-18T09:18:26.088Z,39.67
2022-12-18T09:20:53.874Z,42.77
2022-12-18T09:23:21.456Z,37.23
2022-12-18T09:25:48.527Z,41.70
2022-12-18T09:28:20.156Z,36.37
2022-12-18T09:30:49.883Z,35.73
2022-12-18T09:33:17.984Z,39.10
2022-12-18T09:35:46.201Z,36.20
2022-12-18T09:38:15.853Z,38.53
2022-12-18T09:40:45.886Z,31.67
2022-12-18T09:43:31.258Z,33.90
2022-12-18T09:46:08.292Z,38.30
2022-12-18T09:48:47.475Z,36.53
2022-12-18T09:51:20.683Z,31.90
2022-12-18T09:53:54.545Z,34.00
2022-12-18T09:56:23.829Z,33.00
2022-12-18T09:58:56.124Z,31.23
2022-12-18T10:01:24.889Z,32.70
2022-12-18T10:03:54.582Z,35.30
2022-12-18T10:06:39.327Z,36.17
2022-12-18T10:09:25.991Z,34.70
2022-12-18T10:12:34.520Z,37.17
2022-12-18T10:15:01.251Z,26.13
2022-12-18T10:17:39.333Z,32.50
2022-12-18T10:20:09.417Z,32.40
2022-12-18T10:22:42.429Z,30.00
2022-12-18T10:25:32.559Z,34.60
2022-12-18T10:28:09.432Z,31.73
2022-12-18T10:30:36.552Z,34.57
2022-12-18T10:33:04.340Z,33.43
2022-12-18T10:35:31.423Z,31.40
2022-12-18T10:38:21.471Z,29.77
2022-12-18T10:41:12.418Z,28.60
2022-12-18T10:43:40.613Z,30.60
2022-12-18T10:46:10.475Z,31.07
2022-12-18T10:48:48.266Z,29.80
2022-12-18T10:51:24.262Z,32.00
2022-12-18T10:54:01.678Z,28.57
2022-12-18T10:56:32.074Z,26.33
2022-12-18T10:59:07.414Z,27.00
2022-12-18T11:01:58.160Z,32.20
2022-12-18T11:04:36.186Z,26.80
2022-12-18T11:07:08.082Z,33.10
2022-12-18T11:09:37.104Z,30.37
2022-12-18T11:12:15.461Z,35.90
2022-12-18T11:14:57.793Z,31.93
2022-12-18T11:17:33.570Z,30.43
2022-12-18T11:20:20.203Z,30.17
2022-12-18T11:23:06.546Z,29.20
2022-12-18T11:25:35.898Z,29.80
2022-12-18T11:28:27.908Z,28.50
2022-12-18T11:31:28.922Z,30.20
2022-12-18T11:34:31.195Z,30.97
2022-12-18T11:37:02.002Z,31.10
2022-12-18T11:39:34.772Z,30.03
2022-12-18T11:42:11.052Z,29.40
2022-12-18T11:45:13.863Z,32.43
2022-12-18T11:47:43.616Z,26.67
2022-12-18T11:50:45.838Z,27.23
2022-12-18T11:53:13.829Z,29.37
2022-12-18T11:55:51.516Z,25.97
2022-12-18T11:58:48.747Z,31.67
2022-12-18T12:01:43.660Z,30.93
2022-12-18T12:04:19.938Z,25.03
2022-12-18T12:07:02.886Z,26.57
2022-12-18T12:09:51.209Z,26.80
2022-12-18T12:12:26.332Z,24.83
2022-12-18T12:15:14.091Z,31.77
2022-12-18T12:17:52.168Z,31.07
2022-12-18T12:20:46.553Z,30.97
2022-12-18T12:23:31.446Z,28.10
2022-12-18T12:26:10.904Z,27.27
2022-12-18T12:28:56.656Z,27.07
2022-12-18T12:31:26.177Z,26.00
2022-12-18T12:34:01.018Z,31.63
2022-12-18T12:36:43.988Z,30.30
2022-12-18T12:39:17.325Z,32.40
2022-12-18T12:42:05.906Z,30.90
2022-12-18T12:44:39.666Z,32.43
2022-12-18T12:47:21.637Z,28.43
2022-12-18T12:49:51.568Z,28.20
2022-12-18T12:52:40.867Z,29.37
2022-12-18T12:55:19.785Z,35.77
2022-12-18T12:58:16.468Z,33.40
2022-12-18T13:01:12.488Z,31.27
2022-12-18T13:04:02.051Z,34.03
2022-12-18T13:06:55.658Z,28.80
2022-12-18T13:09:22.504Z,34.03
2022-12-18T13:12:08.241Z,34.93
2022-12-18T13:14:41.272Z,30.40
2022-12-18T13:17:25.861Z,36.77
2022-12-18T13:20:05.440Z,34.07
2022-12-18T13:22:44.821Z,30.03
2022-12-18T13:25:35.468Z,34.03
2022-12-18T13:28:09.520Z,34.93
2022-12-18T13:30:36.380Z,35.17
2022-12-18T13:33:15.276Z,32.73
2022-12-18T13:35:43.349Z,34.57
2022-12-18T13:38:24.463Z,33.67
2022-12-18T13:40:51.438Z,35.83
2022-12-18T13:43:21.291Z,35.57
2022-12-18T13:46:20.043Z,37.03
2022-12-18T13:49:03.722Z,38.20
2022-12-18T13:51:32.742Z,35.83
2022-12-18T13:54:13.498Z,36.93
2022-12-18T13:56:45.375Z,37.13
2022-12-18T13:59:14.159Z,37.30
2022-12-18T14:01:48.662Z,40.57
2022-12-18T14:04:41.906Z,42.77
2022-12-18T14:07:22.961Z,42.53
2022-12-18T14:10:41.324Z,44.50
2022-12-18T14:13:07.896Z,41.17
2022-12-18T14:15:41.967Z,46.90
2022-12-18T14:18:21.435Z,47.97
2022-12-18T14:20:52.817Z,43.87
2022-12-18T14:23:32.454Z,47.43
2022-12-18T14:26:05.126Z,45.57
2022-12-18T14:28:32.676Z,46.87
2022-12-18T14:30:59.559Z,41.10
2022-12-18T14:33:28.053Z,37.67
2022-12-18T14:36:00.467Z,39.43
2022-12-18T14:38:54.588Z,45.17
2022-12-18T14:41:22.623Z,40.07
2022-12-18T14:43:51.637Z,37.70
2022-12-18T14:46:36.594Z,35.47
2022-12-18T14:49:32.625Z,34.73
2022-12-18T14:52:02.130Z,34.87
2022-12-18T14:54:30.596Z,32.90
2022-12-18T14:57:23.305Z,31.67
2022-12-18T14:59:50.757Z,35.13
2022-12-18T15:02:26.631Z,33.80
2022-12-18T15:05:19.087Z,33.57
2022-12-18T15:07:48.650Z,34.30
2022-12-18T15:10:21.787Z,31.87
2022-12-18T15:12:57.622Z,27.70
2022-12-18T15:15:41.525Z,25.67
2022-12-18T15:18:08.766Z,25.90
2022-12-18T15:20:45.606Z,25.17
2022-12-18T15:23:27.435Z,27.80
2022-12-18T15:26:05.562Z,27.93
2022-12-18T15:28:38.176Z,26.17
2022-12-18T15:31:26.372Z,23.63
2022-12-18T15:33:53.805Z,23.40
2022-12-18T15:36:26.405Z,24.60
2022-12-18T15:38:59.513Z,22.97
2022-12-18T15:41:37.417Z,26.43
2022-12-18T15:44:21.776Z,24.13
2022-12-18T15:46:48.529Z,20.67
2022-12-18T15:49:15.408Z,20.27
2022-12-18T15:51:42.284Z,20.40
2022-12-18T15:54:14.230Z,20.20
2022-12-18T15:56:59.949Z,19.47
2022-12-18T15:59:27.102Z,19.87
2022-12-18T16:01:54.457Z,18.63
2022-12-18T16:04:23.445Z,20.00
2022-12-18T16:07:13.947Z,19.17
2022-12-18T16:09:38.001Z,18.30
2022-12-18T16:12:06.049Z,16.73
2022-12-18T16:14:33.497Z,17.70
2022-12-18T16:17:07.723Z,18.73
2022-12-18T16:19:34.467Z,18.57
2022-12-18T16:22:04.317Z,18.33
2022-12-18T16:24:33.708Z,17.77
2022-12-18T16:27:01.670Z,17.33
2022-12-18T16:29:34.288Z,18.17
2022-12-18T16:32:02.031Z,19.40
2022-12-18T16:34:32.095Z,16.27
2022-12-18T16:37:05.830Z,16.77
2022-12-18T16:39:35.340Z,17.83
2022-12-18T16:42:05.989Z,14.43
2022-12-18T16:44:34.100Z,16.53
2022-12-18T16:47:03.069Z,20.23
2022-12-18T16:49:30.887Z,15.87
2022-12-18T16:51:57.830Z,16.97
2022-12-18T16:54:25.056Z,16.80
2022-12-18T16:56:52.252Z,17.83
2022-12-18T16:59:19.273Z,15.37
2022-12-18T17:01:47.291Z,17.87
2022-12-18T17:04:14.791Z,23.10
2022-12-18T17:06:45.653Z,17.70
2022-12-18T17:09:16.457Z,14.23
2022-12-18T17:11:44.242Z,15.37
2022-12-18T17:14:22.082Z,20.53
2022-12-18T17:17:19.201Z,18.63
2022-12-18T17:19:38.628Z,18.40
2022-12-18T17:22:05.660Z,15.07
2022-12-18T17:24:35.028Z,18.20
2022-12-18T17:27:06.296Z,15.17
2022-12-18T17:29:33.241Z,16.73
2022-12-18T17:32:00.656Z,15.07
2022-12-18T17:34:27.802Z,15.90
2022-12-18T17:36:55.294Z,15.60
2022-12-18T17:39:23.098Z,14.90
2022-12-18T17:41:50.251Z,15.13
2022-12-18T17:44:17.826Z,17.40
2022-12-18T17:46:46.213Z,16.53
2022-12-18T17:49:14.071Z,14.50
2022-12-18T17:51:43.058Z,15.17
2022-12-18T17:54:10.817Z,14.13
2022-12-18T17:56:38.155Z,15.77
2022-12-18T17:59:05.234Z,15.17
2022-12-18T18:01:32.249Z,12.40
2022-12-18T18:04:00.380Z,13.80
2022-12-18T18:06:27.577Z,19.33
2022-12-18T18:08:55.173Z,12.77
2022-12-18T18:11:42.565Z,14.97
2022-12-18T18:14:18.542Z,12.63
2022-12-18T18:16:48.090Z,13.87
2022-12-18T18:19:17.894Z,14.00
2022-12-18T18:21:47.371Z,12.70
2022-12-18T18:24:17.110Z,13.47
2022-12-18T18:26:44.299Z,12.53
2022-12-18T18:29:16.776Z,13.47
2022-12-18T18:31:44.216Z,14.93
2022-12-18T18:34:25.502Z,14.07
2022-12-18T18:36:52.388Z,14.20
2022-12-18T18:39:19.947Z,13.70
2022-12-18T18:41:48.209Z,14.63
2022-12-18T18:44:19.051Z,16.17
2022-12-18T18:46:46.068Z,14.93
2022-12-18T18:49:14.025Z,16.23
2022-12-18T18:51:41.785Z,13.27
2022-12-18T18:54:09.548Z,14.50
2022-12-18T18:59:29.690Z,15.17
2022-12-18T19:02:04.455Z,15.50
2022-12-18T19:04:33.388Z,13.77
2022-12-18T19:07:00.219Z,16.13
2022-12-18T19:09:27.728Z,14.73
2022-12-18T19:12:14.414Z,15.60
2022-12-18T19:14:41.328Z,15.33
2022-12-18T19:17:08.276Z,13.50
2022-12-18T19:19:35.326Z,16.97
2022-12-18T19:22:02.607Z,16.27
2022-12-18T19:24:29.618Z,15.67
2022-12-18T19:26:56.846Z,17.87
2022-12-18T19:29:25.151Z,16.13
2022-12-18T19:31:52.249Z,15.37
2022-12-18T19:34:19.047Z,16.37
2022-12-18T19:36:46.560Z,14.67
2022-12-18T19:39:19.225Z,18.40
2022-12-18T19:41:46.884Z,15.63
2022-12-18T19:44:16.159Z,14.60
2022-12-18T19:46:44.435Z,14.83
2022-12-18T19:49:11.840Z,16.03
2022-12-18T19:51:44.261Z,17.00
2022-12-18T19:54:20.528Z,14.50
2022-12-18T19:56:51.631Z,14.53
2022-12-18T19:59:21.236Z,15.63
2022-12-18T20:01:58.387Z,14.67
2022-12-18T20:04:26.200Z,14.53
2022-12-18T20:06:58.541Z,14.63
2022-12-18T20:09:29.898Z,14.00
2022-12-18T20:11:59.210Z,14.47
2022-12-18T20:14:29.645Z,14.10
2022-12-18T20:16:59.248Z,13.63
2022-12-18T20:19:27.939Z,13.60
2022-12-18T20:22:08.364Z,13.40
2022-12-18T20:24:37.239Z,11.67
2022-12-18T20:27:04.673Z,11.03
2022-12-18T20:29:32.121Z,14.10
2022-12-18T20:31:59.834Z,10.47
2022-12-18T20:34:27.070Z,10.97
2022-12-18T20:36:54.683Z,9.00
2022-12-18T20:39:22.410Z,10.17
2022-12-18T20:41:51.186Z,8.40
2022-12-18T20:44:23.219Z,9.70
2022-12-18T20:46:56.739Z,8.53
2022-12-18T20:49:25.809Z,9.47
2022-12-18T20:51:57.959Z,8.43
2022-12-18T20:54:27.660Z,8.47
2022-12-18T20:57:02.422Z,9.33
2022-12-18T20:59:40.937Z,10.77
2022-12-18T21:02:25.470Z,10.27
2022-12-18T21:05:01.015Z,9.40
2022-12-18T21:07:28.295Z,9.43
2022-12-18T21:09:55.317Z,8.50
2022-12-18T21:12:34.948Z,8.70
2022-12-18T21:15:13.153Z,9.93
2022-12-18T21:17:45.101Z,8.63
2022-12-18T21:20:17.570Z,10.63
2022-12-18T21:22:50.394Z,8.73
2022-12-18T21:25:17.514Z,10.27
2022-12-18T21:27:44.533Z,9.83
2022-12-18T21:30:11.612Z,6.80
2022-12-18T21:32:38.966Z,6.07
2022-12-18T21:35:06.596Z,5.93
2022-12-18T21:37:33.299Z,8.07
2022-12-18T21:40:00.100Z,7.93
2022-12-18T21:42:45.768Z,6.43
2022-12-18T21:45:13.467Z,6.57
2022-12-18T21:47:40.191Z,5.40
2022-12-18T21:50:07.282Z,7.07
2022-12-18T21:52:34.551Z,4.97
2022-12-18T21:55:09.879Z,6.27
2022-12-18T21:57:39.663Z,8.00
2022-12-18T22:00:10.593Z,7.10
2022-12-18T22:02:39.739Z,9.50
2022-12-18T22:05:07.174Z,7.17
2022-12-18T22:07:34.507Z,7.67
2022-12-18T22:10:02.221Z,7.33
2022-12-18T22:12:35.612Z,9.13
2022-12-18T22:15:05.790Z,9.63
2022-12-18T22:17:33.036Z,8.00
2022-12-18T22:19:59.940Z,8.40
2022-12-18T22:22:27.079Z,8.33
2022-12-18T22:24:54.336Z,7.53
2022-12-18T22:27:21.116Z,8.00
2022-12-18T22:30:05.975Z,8.73
2022-12-18T22:32:36.941Z,7.43
2022-12-18T22:35:10.359Z,7.00
2022-12-18T22:37:40.282Z,8.70
2022-12-18T22:40:07.636Z,7.03
2022-12-18T22:42:35.864Z,7.03
2022-12-18T22:45:03.130Z,7.47
2022-12-18T22:47:30.837Z,7.33
2022-12-18T22:49:58.833Z,7.43
2022-12-18T22:52:26.186Z,6.80
2022-12-18T22:54:54.333Z,8.67
2022-12-18T22:57:22.599Z,6.07
2022-12-18T22:59:52.367Z,10.77
2022-12-18T23:02:19.820Z,8.47
2022-12-18T23:04:48.010Z,7.23
2022-12-18T23:07:17.320Z,7.60
2022-12-18T23:09:45.525Z,5.10
2022-12-18T23:12:16.499Z,5.97
2022-12-18T23:14:43.818Z,6.37
2022-12-18T23:17:10.912Z,5.80
2022-12-18T23:19:37.727Z,7.57
2022-12-18T23:22:10.071Z,6.30
2022-12-18T23:24:38.461Z,7.67
2022-12-18T23:27:05.734Z,6.07
2022-12-18T23:29:36.277Z,4.83
2022-12-18T23:32:03.082Z,5.73
2022-12-18T23:34:29.844Z,5.77
2022-12-18T23:36:56.563Z,5.30
2022-12-18T23:39:29.419Z,5.20
2022-12-18T23:42:00.189Z,6.27
2022-12-18T23:44:27.486Z,5.77
2022-12-18T23:46:54.787Z,5.37
2022-12-18T23:49:21.652Z,5.47
2022-12-18T23:51:49.036Z,4.67
2022-12-18T23:54:16.042Z,4.70
2022-12-18T23:56:42.841Z,4.53
2022-12-18T23:59:09.836Z,3.93
